createdAt,value
2019-03-01T00:00:16.158Z,1.50
2019-03-01T00:01:16.161Z,1.60
2019-03-01T00:02:16.125Z,1.50
2019-03-01T00:03:16.105Z,1.60
2019-03-01T00:04:16.113Z,1.40
2019-03-01T00:05:16.102Z,1.40
2019-03-01T00:06:16.076Z,1.70
2019-03-01T00:07:16.096Z,1.50
2019-03-01T00:08:16.093Z,1.60
2019-03-01T00:09:16.071Z,1.80
2019-03-01T00:10:16.058Z,1.50
2019-03-01T00:11:16.018Z,1.50
2019-03-01T00:12:16.055Z,1.40
2019-03-01T00:13:16.020Z,1.80
2019-03-01T00:14:16.003Z,1.50
2019-03-01T00:15:16.029Z,1.50
2019-03-01T00:16:15.987Z,1.60
2019-03-01T00:17:15.954Z,1.60
2019-03-01T00:18:15.948Z,1.60
2019-03-01T00:19:15.938Z,1.50
2019-03-01T00:20:15.989Z,1.50
2019-03-01T00:21:15.911Z,1.70
2019-03-01T00:22:15.897Z,1.40
2019-03-01T00:23:15.899Z,1.50
2019-03-01T00:24:15.882Z,1.60
2019-03-01T00:25:15.982Z,1.60
2019-03-01T00:26:15.858Z,1.40
2019-03-01T00:27:15.845Z,1.50
2019-03-01T00:28:15.850Z,1.60
2019-03-01T00:29:15.831Z,1.50
2019-03-01T00:30:15.884Z,1.50
2019-03-01T00:31:15.866Z,1.80
2019-03-01T00:32:15.809Z,1.50
2019-03-01T00:33:15.801Z,1.60
2019-03-01T00:34:15.772Z,1.60
2019-03-01T00:35:15.817Z,1.60
2019-03-01T00:36:15.780Z,1.50
2019-03-01T00:37:15.799Z,1.60
2019-03-01T00:38:15.787Z,1.40
2019-03-01T00:39:15.752Z,1.70
2019-03-01T00:40:15.699Z,1.70
2019-03-01T00:41:15.705Z,1.60
2019-03-01T00:42:15.690Z,1.50
2019-03-01T00:43:15.677Z,1.50
2019-03-01T00:44:15.669Z,1.70
2019-03-01T00:45:15.651Z,1.60
2019-03-01T00:46:15.664Z,1.40
2019-03-01T00:47:15.670Z,1.70
2019-03-01T00:48:15.610Z,1.60
2019-03-01T00:49:15.617Z,1.50
2019-03-01T00:50:15.604Z,1.60
2019-03-01T00:51:15.601Z,1.50
2019-03-01T00:52:15.603Z,1.60
2019-03-01T00:53:15.569Z,1.60
2019-03-01T00:54:15.551Z,1.40
2019-03-01T00:55:15.621Z,1.70
2019-03-01T00:56:15.535Z,1.50
2019-03-01T00:57:15.525Z,1.70
2019-03-01T00:58:15.498Z,1.70
2019-03-01T00:59:15.502Z,1.50
2019-03-01T01:00:15.482Z,1.60
2019-03-01T01:01:15.496Z,1.80
2019-03-01T01:02:15.472Z,1.70
2019-03-01T01:03:15.471Z,1.60
2019-03-01T01:04:15.435Z,1.60
2019-03-01T01:05:15.444Z,1.80
2019-03-01T01:06:15.419Z,1.70
2019-03-01T01:07:15.398Z,1.80
2019-03-01T01:08:15.393Z,1.80
2019-03-01T01:09:15.390Z,1.60
2019-03-01T01:10:15.401Z,1.50
2019-03-01T01:11:15.381Z,1.50
2019-03-01T01:12:15.353Z,1.80
2019-03-01T01:13:15.338Z,1.60
2019-03-01T01:14:15.323Z,1.80
2019-03-01T01:15:15.324Z,1.80
2019-03-01T01:16:15.377Z,1.70
2019-03-01T01:17:15.292Z,1.60
2019-03-01T01:18:15.287Z,1.70
2019-03-01T01:19:15.263Z,1.50
2019-03-01T01:20:15.284Z,1.50
2019-03-01T01:21:15.263Z,1.50
2019-03-01T01:22:15.247Z,1.50
2019-03-01T01:23:15.248Z,1.60
2019-03-01T01:24:15.240Z,1.70
2019-03-01T01:25:15.317Z,1.60
2019-03-01T01:26:15.221Z,1.40
2019-03-01T01:27:15.291Z,1.60
2019-03-01T01:28:15.176Z,1.70
2019-03-01T01:29:15.189Z,1.70
2019-03-01T01:30:15.197Z,1.50
2019-03-01T01:31:15.190Z,1.70
2019-03-01T01:32:15.163Z,1.50
2019-03-01T01:33:15.119Z,1.50
2019-03-01T01:34:15.125Z,1.60
2019-03-01T01:35:15.103Z,1.50
2019-03-01T01:36:15.139Z,1.50
2019-03-01T01:37:15.102Z,1.40
2019-03-01T01:38:15.134Z,1.60
2019-03-01T01:39:15.049Z,1.50
2019-03-01T01:40:15.074Z,1.50
2019-03-01T01:41:15.089Z,1.50
2019-03-01T01:42:15.030Z,1.60
2019-03-01T01:43:15.009Z,1.60
2019-03-01T01:44:15.020Z,1.20
2019-03-01T01:45:15.014Z,1.60
2019-03-01T01:46:14.981Z,1.60
2019-03-01T01:47:14.957Z,1.50
2019-03-01T01:48:14.951Z,1.50
2019-03-01T01:49:14.962Z,1.70
2019-03-01T01:50:14.955Z,1.60
2019-03-01T01:51:14.950Z,1.50
2019-03-01T01:52:14.928Z,1.60
2019-03-01T01:53:14.890Z,1.40
2019-03-01T01:54:14.958Z,1.50
2019-03-01T01:55:14.926Z,1.40
2019-03-01T01:56:14.855Z,1.50
2019-03-01T01:57:14.849Z,1.30
2019-03-01T01:58:14.839Z,1.60
2019-03-01T01:59:14.894Z,1.50
2019-03-01T02:00:14.812Z,1.50
2019-03-01T02:01:14.797Z,1.50
2019-03-01T02:02:14.865Z,1.60
2019-03-01T02:03:14.769Z,1.20
2019-03-01T02:04:14.779Z,1.30
2019-03-01T02:05:14.749Z,1.40
2019-03-01T02:06:14.735Z,1.50
2019-03-01T02:07:14.741Z,1.40
2019-03-01T02:08:14.733Z,1.60
2019-03-01T02:09:14.712Z,1.60
2019-03-01T02:10:14.735Z,1.40
2019-03-01T02:11:14.760Z,1.60
2019-03-01T02:12:14.770Z,1.60
2019-03-01T02:13:14.683Z,1.50
2019-03-01T02:14:14.669Z,1.60
2019-03-01T02:15:14.657Z,1.60
2019-03-01T02:16:14.631Z,1.50
2019-03-01T02:17:14.640Z,1.50
2019-03-01T02:18:14.609Z,1.50
2019-03-01T02:19:14.594Z,1.40
2019-03-01T02:20:14.599Z,1.60
2019-03-01T02:21:14.627Z,1.60
2019-03-01T02:22:14.593Z,1.60
2019-03-01T02:23:14.602Z,1.70
2019-03-01T02:24:14.545Z,1.40
2019-03-01T02:25:14.553Z,1.60
2019-03-01T02:26:14.513Z,1.60
2019-03-01T02:27:14.543Z,1.50
2019-03-01T02:28:14.500Z,1.70
2019-03-01T02:29:14.491Z,1.60
2019-03-01T02:30:14.495Z,1.60
2019-03-01T02:31:14.505Z,1.40
2019-03-01T02:32:14.470Z,1.60
2019-03-01T02:33:14.465Z,1.40
2019-03-01T02:34:14.445Z,1.70
2019-03-01T02:35:14.422Z,1.50
2019-03-01T02:36:14.471Z,1.90
2019-03-01T02:37:14.413Z,1.40
2019-03-01T02:38:14.391Z,1.40
2019-03-01T02:39:14.384Z,1.50
2019-03-01T02:40:14.401Z,1.30
2019-03-01T02:41:14.412Z,1.50
2019-03-01T02:42:14.365Z,1.40
2019-03-01T02:43:14.435Z,1.30
2019-03-01T02:44:14.322Z,1.40
2019-03-01T02:45:14.351Z,1.40
2019-03-01T02:46:14.297Z,1.70
2019-03-01T02:47:14.293Z,1.40
2019-03-01T02:48:14.280Z,1.50
2019-03-01T02:49:14.302Z,1.40
2019-03-01T02:50:14.391Z,1.70
2019-03-01T02:51:14.256Z,1.60
2019-03-01T02:52:14.238Z,1.50
2019-03-01T02:53:14.244Z,1.50
2019-03-01T02:54:14.213Z,1.40
2019-03-01T02:55:14.281Z,1.40
2019-03-01T02:56:14.225Z,1.40
2019-03-01T02:57:14.178Z,1.40
2019-03-01T02:58:14.181Z,1.40
2019-03-01T02:59:14.165Z,1.50
2019-03-01T03:00:14.199Z,1.20
2019-03-01T03:01:14.143Z,1.50
2019-03-01T03:02:14.127Z,1.30
2019-03-01T03:03:14.129Z,1.30
2019-03-01T03:04:14.106Z,1.40
2019-03-01T03:05:14.114Z,1.40
2019-03-01T03:06:14.075Z,1.50
2019-03-01T03:07:14.069Z,1.30
2019-03-01T03:08:14.115Z,1.40
2019-03-01T03:09:14.043Z,1.40
2019-03-01T03:10:14.046Z,1.40
2019-03-01T03:11:14.032Z,1.60
2019-03-01T03:12:14.030Z,1.60
2019-03-01T03:13:14.043Z,1.50
2019-03-01T03:14:14.020Z,1.40
2019-03-01T03:15:13.969Z,1.50
2019-03-01T03:16:13.974Z,1.50
2019-03-01T03:17:13.948Z,1.50
2019-03-01T03:18:13.946Z,1.40
2019-03-01T03:19:13.923Z,1.50
2019-03-01T03:20:13.966Z,1.50
2019-03-01T03:21:13.976Z,1.10
2019-03-01T03:22:13.895Z,1.50
2019-03-01T03:23:13.902Z,1.30
2019-03-01T03:24:13.871Z,1.40
2019-03-01T03:25:13.931Z,1.30
2019-03-01T03:26:13.861Z,1.60
2019-03-01T03:27:13.845Z,1.60
2019-03-01T03:28:13.877Z,1.30
2019-03-01T03:29:13.819Z,1.20
2019-03-01T03:30:13.807Z,1.40
2019-03-01T03:31:13.905Z,1.30
2019-03-01T03:32:13.799Z,1.40
2019-03-01T03:33:13.773Z,1.30
2019-03-01T03:34:13.788Z,1.40
2019-03-01T03:35:13.851Z,1.40
2019-03-01T03:36:13.777Z,1.40
2019-03-01T03:37:13.727Z,1.50
2019-03-01T03:38:13.708Z,1.20
2019-03-01T03:39:13.729Z,1.30
2019-03-01T03:40:13.701Z,1.40
2019-03-01T03:41:13.685Z,1.40
2019-03-01T03:42:13.669Z,1.40
2019-03-01T03:43:13.664Z,1.20
2019-03-01T03:44:13.663Z,1.20
2019-03-01T03:45:13.637Z,1.30
2019-03-01T03:46:13.670Z,1.30
2019-03-01T03:47:13.637Z,1.20
2019-03-01T03:48:13.604Z,1.40
2019-03-01T03:49:13.613Z,1.30
2019-03-01T03:50:13.579Z,1.50
2019-03-01T03:51:13.593Z,1.30
2019-03-01T03:52:13.573Z,1.20
2019-03-01T03:53:13.666Z,1.30
2019-03-01T03:54:13.546Z,1.30
2019-03-01T03:55:13.598Z,1.20
2019-03-01T03:56:13.558Z,1.40
2019-03-01T03:57:13.509Z,1.30
2019-03-01T03:58:13.495Z,1.30
2019-03-01T03:59:13.484Z,1.60
2019-03-01T04:00:13.464Z,1.30
2019-03-01T04:01:13.462Z,1.10
2019-03-01T04:02:13.536Z,1.40
2019-03-01T04:03:13.436Z,1.20
2019-03-01T04:04:13.428Z,1.30
2019-03-01T04:05:13.416Z,1.20
2019-03-01T04:06:13.401Z,1.40
2019-03-01T04:07:13.388Z,1.20
2019-03-01T04:08:13.379Z,1.10
2019-03-01T04:09:13.394Z,1.20
2019-03-01T04:10:13.356Z,1.10
2019-03-01T04:11:13.389Z,1.20
2019-03-01T04:12:13.358Z,1.40
2019-03-01T04:13:13.353Z,1.20
2019-03-01T04:14:13.435Z,1.30
2019-03-01T04:15:13.319Z,1.30
2019-03-01T04:16:13.316Z,1.30
2019-03-01T04:17:13.323Z,1.30
2019-03-01T04:18:13.267Z,1.40
2019-03-01T04:19:13.309Z,1.20
2019-03-01T04:20:13.298Z,1.00
2019-03-01T04:21:13.269Z,1.30
2019-03-01T04:22:13.249Z,1.20
2019-03-01T04:23:13.257Z,1.30
2019-03-01T04:24:13.223Z,1.20
2019-03-01T04:25:13.322Z,1.20
2019-03-01T04:26:13.267Z,1.20
2019-03-01T04:27:13.217Z,1.60
2019-03-01T04:28:13.159Z,1.40
2019-03-01T04:29:13.220Z,1.10
2019-03-01T04:30:13.154Z,1.30
2019-03-01T04:31:13.127Z,1.30
2019-03-01T04:32:13.128Z,1.30
2019-03-01T04:33:13.104Z,1.20
2019-03-01T04:34:13.151Z,1.40
2019-03-01T04:35:13.105Z,1.20
2019-03-01T04:36:13.076Z,1.30
2019-03-01T04:37:13.063Z,1.20
2019-03-01T04:38:13.059Z,1.20
2019-03-01T04:39:13.029Z,1.30
2019-03-01T04:40:13.135Z,1.10
2019-03-01T04:41:13.016Z,1.20
2019-03-01T04:42:12.997Z,1.20
2019-03-01T04:43:12.988Z,1.20
2019-03-01T04:44:13.018Z,1.20
2019-03-01T04:45:13.008Z,1.20
2019-03-01T04:46:12.970Z,1.40
2019-03-01T04:47:12.963Z,1.20
2019-03-01T04:48:12.938Z,1.20
2019-03-01T04:49:12.917Z,1.30
2019-03-01T04:50:12.925Z,1.20
2019-03-01T04:51:12.909Z,1.10
2019-03-01T04:52:12.908Z,1.50
2019-03-01T04:53:12.904Z,1.20
2019-03-01T04:54:12.890Z,1.20
2019-03-01T04:55:12.952Z,1.30
2019-03-01T04:56:12.875Z,1.40
2019-03-01T04:57:12.836Z,1.30
2019-03-01T04:58:12.863Z,1.50
2019-03-01T04:59:12.812Z,1.20
2019-03-01T05:00:12.804Z,1.10
2019-03-01T05:01:12.783Z,1.20
2019-03-01T05:02:12.782Z,1.20
2019-03-01T05:03:12.760Z,1.50
2019-03-01T05:04:12.767Z,1.50
2019-03-01T05:05:12.758Z,1.20
2019-03-01T05:06:12.802Z,1.30
2019-03-01T05:07:12.720Z,1.10
2019-03-01T05:08:12.703Z,1.20
2019-03-01T05:09:12.701Z,1.30
2019-03-01T05:10:12.695Z,1.10
2019-03-01T05:11:12.685Z,1.20
2019-03-01T05:12:12.662Z,1.00
2019-03-01T05:13:12.683Z,1.10
2019-03-01T05:14:12.639Z,1.40
2019-03-01T05:15:14.567Z,1.20
2019-03-01T05:16:12.621Z,1.10
2019-03-01T05:17:12.613Z,1.30
2019-03-01T05:18:12.617Z,1.30
2019-03-01T05:19:12.587Z,1.30
2019-03-01T05:20:12.593Z,1.20
2019-03-01T05:21:12.563Z,1.20
2019-03-01T05:22:12.556Z,1.30
2019-03-01T05:23:12.618Z,1.10
2019-03-01T05:24:12.568Z,1.30
2019-03-01T05:25:12.683Z,1.10
2019-03-01T05:26:12.564Z,1.00
2019-03-01T05:27:12.492Z,1.20
2019-03-01T05:28:12.497Z,1.30
2019-03-01T05:29:12.470Z,1.40
2019-03-01T05:30:12.480Z,1.50
2019-03-01T05:31:12.453Z,1.10
2019-03-01T05:32:12.438Z,1.40
2019-03-01T05:33:12.443Z,1.20
2019-03-01T05:34:12.454Z,1.20
2019-03-01T05:35:12.412Z,1.20
2019-03-01T05:36:12.453Z,1.50
2019-03-01T05:37:12.453Z,1.30
2019-03-01T05:38:21.311Z,1.10
2019-03-01T05:39:13.379Z,1.10
2019-03-01T05:40:12.394Z,1.10
2019-03-01T05:41:12.475Z,1.40
2019-03-01T05:42:12.332Z,1.30
2019-03-01T05:43:12.318Z,1.40
2019-03-01T05:44:12.320Z,1.40
2019-03-01T05:45:12.314Z,1.30
2019-03-01T05:46:12.347Z,1.40
2019-03-01T05:47:12.337Z,1.50
2019-03-01T05:48:12.258Z,1.60
2019-03-01T05:49:12.278Z,1.30
2019-03-01T05:50:12.269Z,1.40
2019-03-01T05:51:12.274Z,1.10
2019-03-01T05:52:12.217Z,1.40
2019-03-01T05:53:12.210Z,1.20
2019-03-01T05:54:12.201Z,1.60
2019-03-01T05:55:12.291Z,1.40
2019-03-01T05:56:12.194Z,1.30
2019-03-01T05:57:12.166Z,1.30
2019-03-01T05:58:16.499Z,1.60
2019-03-01T05:59:12.164Z,1.20
2019-03-01T06:00:12.140Z,1.50
2019-03-01T06:01:12.154Z,1.40
2019-03-01T06:02:12.134Z,1.60
2019-03-01T06:03:12.150Z,1.30
2019-03-01T06:04:12.081Z,1.40
2019-03-01T06:05:12.087Z,1.20
2019-03-01T06:06:12.120Z,1.30
2019-03-01T06:07:12.116Z,1.40
2019-03-01T06:08:12.116Z,1.40
2019-03-01T06:09:12.034Z,1.30
2019-03-01T06:10:12.021Z,1.40
2019-03-01T06:11:12.073Z,1.50
2019-03-01T06:12:11.993Z,1.50
2019-03-01T06:13:11.985Z,1.50
2019-03-01T06:14:11.974Z,1.80
2019-03-01T06:15:11.989Z,1.40
2019-03-01T06:16:11.964Z,1.50
2019-03-01T06:17:12.075Z,1.60
2019-03-01T06:18:11.958Z,1.50
2019-03-01T06:19:11.955Z,1.40
2019-03-01T06:20:11.933Z,1.80
2019-03-01T06:21:11.901Z,1.80
2019-03-01T06:22:11.901Z,1.50
2019-03-01T06:23:11.874Z,1.50
2019-03-01T06:24:11.891Z,1.70
2019-03-01T06:25:11.904Z,1.60
2019-03-01T06:26:11.893Z,1.60
2019-03-01T06:27:11.846Z,1.70
2019-03-01T06:28:11.822Z,1.60
2019-03-01T06:29:11.858Z,1.70
2019-03-01T06:30:11.813Z,1.80
2019-03-01T06:31:11.850Z,1.70
2019-03-01T06:32:11.797Z,1.70
2019-03-01T06:33:11.762Z,1.60
2019-03-01T06:34:11.754Z,1.60
2019-03-01T06:35:11.745Z,1.80
2019-03-01T06:36:11.729Z,1.60
2019-03-01T06:37:11.787Z,1.50
2019-03-01T06:38:11.756Z,1.80
2019-03-01T06:39:11.712Z,1.80
2019-03-01T06:40:11.702Z,1.70
2019-03-01T06:41:11.692Z,1.70
2019-03-01T06:42:11.676Z,1.60
2019-03-01T06:43:11.716Z,1.60
2019-03-01T06:44:11.649Z,1.60
2019-03-01T06:45:11.625Z,1.60
2019-03-01T06:46:11.641Z,1.90
2019-03-01T06:47:11.627Z,1.60
2019-03-01T06:48:11.597Z,1.80
2019-03-01T06:49:11.591Z,1.70
2019-03-01T06:50:13.063Z,1.70
2019-03-01T06:51:11.576Z,1.70
2019-03-01T06:52:11.567Z,1.90
2019-03-01T06:53:11.565Z,1.60
2019-03-01T06:54:11.543Z,1.70
2019-03-01T06:55:11.522Z,1.80
2019-03-01T06:56:11.553Z,2.20
2019-03-01T06:57:11.518Z,1.70
2019-03-01T06:58:11.513Z,1.80
2019-03-01T06:59:11.487Z,1.80
2019-03-01T07:00:11.510Z,1.90
2019-03-01T07:01:11.455Z,2.00
2019-03-01T07:02:11.450Z,2.00
2019-03-01T07:03:11.442Z,1.70
2019-03-01T07:04:11.513Z,1.90
2019-03-01T07:05:11.436Z,1.80
2019-03-01T07:06:11.395Z,1.90
2019-03-01T07:07:11.479Z,2.00
2019-03-01T07:08:11.376Z,1.70
2019-03-01T07:09:11.369Z,2.20
2019-03-01T07:10:11.376Z,2.00
2019-03-01T07:11:11.346Z,1.70
2019-03-01T07:12:11.330Z,1.90
2019-03-01T07:13:11.340Z,1.60
2019-03-01T07:14:11.328Z,1.70
2019-03-01T07:15:11.295Z,1.90
2019-03-01T07:16:11.284Z,1.80
2019-03-01T07:17:11.273Z,1.70
2019-03-01T07:18:11.274Z,1.80
2019-03-01T07:19:11.257Z,1.90
2019-03-01T07:20:12.660Z,1.80
2019-03-01T07:21:11.233Z,1.90
2019-03-01T07:22:11.220Z,1.90
2019-03-01T07:23:11.245Z,1.90
2019-03-01T07:24:11.358Z,1.70
2019-03-01T07:25:11.274Z,2.00
2019-03-01T07:26:11.181Z,2.00
2019-03-01T07:27:12.404Z,2.10
2019-03-01T07:28:11.175Z,1.90
2019-03-01T07:29:11.171Z,2.20
2019-03-01T07:30:11.145Z,2.30
2019-03-01T07:31:11.130Z,2.10
2019-03-01T07:32:11.117Z,2.10
2019-03-01T07:33:11.187Z,2.20
2019-03-01T07:34:11.107Z,2.20
2019-03-01T07:35:11.086Z,2.00
2019-03-01T07:36:11.100Z,2.30
2019-03-01T07:37:11.055Z,2.00
2019-03-01T07:38:11.081Z,2.20
2019-03-01T07:39:11.046Z,2.30
2019-03-01T07:40:11.023Z,2.40
2019-03-01T07:41:11.012Z,2.40
2019-03-01T07:42:11.073Z,2.60
2019-03-01T07:43:11.021Z,2.50
2019-03-01T07:44:10.974Z,2.60
2019-03-01T07:45:11.030Z,2.50
2019-03-01T07:46:10.950Z,2.60
2019-03-01T07:47:10.949Z,3.00
2019-03-01T07:48:10.971Z,2.90
2019-03-01T07:49:10.920Z,2.90
2019-03-01T07:50:10.906Z,3.00
2019-03-01T07:51:10.935Z,3.00
2019-03-01T07:52:10.898Z,2.70
2019-03-01T07:53:10.907Z,2.90
2019-03-01T07:54:13.379Z,2.90
2019-03-01T07:55:11.922Z,2.80
2019-03-01T07:56:10.853Z,3.00
2019-03-01T07:57:11.428Z,3.30
2019-03-01T07:58:10.836Z,3.10
2019-03-01T07:59:10.816Z,3.10
2019-03-01T08:00:14.021Z,3.00
2019-03-01T08:01:10.792Z,3.00
2019-03-01T08:02:10.806Z,3.10
2019-03-01T08:03:11.792Z,3.30
2019-03-01T08:04:10.757Z,3.10
2019-03-01T08:05:10.792Z,3.50
2019-03-01T08:06:13.459Z,3.40
2019-03-01T08:07:10.723Z,3.60
2019-03-01T08:08:10.834Z,3.70
2019-03-01T08:09:10.701Z,3.80
2019-03-01T08:10:10.703Z,3.70
2019-03-01T08:11:10.694Z,3.70
2019-03-01T08:12:10.745Z,3.50
2019-03-01T08:13:10.652Z,3.80
2019-03-01T08:14:10.889Z,4.50
2019-03-01T08:15:10.630Z,3.90
2019-03-01T08:16:10.621Z,4.30
2019-03-01T08:17:10.622Z,4.00
2019-03-01T08:18:10.700Z,4.40
2019-03-01T08:19:10.598Z,4.30
2019-03-01T08:20:10.599Z,4.80
2019-03-01T08:21:11.445Z,4.40
2019-03-01T08:22:10.563Z,4.40
2019-03-01T08:23:10.584Z,4.30
2019-03-01T08:24:11.101Z,4.50
2019-03-01T08:25:10.640Z,4.50
2019-03-01T08:26:10.511Z,4.80
2019-03-01T08:27:11.154Z,4.60
2019-03-01T08:28:10.487Z,4.60
2019-03-01T08:29:10.495Z,4.50
2019-03-01T08:30:11.328Z,4.90
2019-03-01T08:31:10.452Z,5.10
2019-03-01T08:32:10.447Z,5.10
2019-03-01T08:33:10.429Z,5.60
2019-03-01T08:34:10.438Z,4.90
2019-03-01T08:35:10.466Z,5.30
2019-03-01T08:36:10.402Z,5.20
2019-03-01T08:37:10.393Z,5.70
2019-03-01T08:38:10.416Z,5.60
2019-03-01T08:39:10.422Z,5.80
2019-03-01T08:40:11.527Z,5.10
2019-03-01T08:41:10.344Z,5.80
2019-03-01T08:42:10.335Z,5.30
2019-03-01T08:43:13.000Z,5.50
2019-03-01T08:44:10.319Z,5.60
2019-03-01T08:45:10.341Z,5.70
2019-03-01T08:46:10.517Z,5.50
2019-03-01T08:47:10.277Z,6.30
2019-03-01T08:48:10.268Z,6.40
2019-03-01T08:49:11.309Z,5.50
2019-03-01T08:50:10.250Z,5.80
2019-03-01T08:51:10.288Z,6.50
2019-03-01T08:52:10.240Z,5.90
2019-03-01T08:53:11.514Z,5.40
2019-03-01T08:54:10.221Z,5.10
2019-03-01T08:55:10.276Z,5.30
2019-03-01T08:56:11.053Z,5.50
2019-03-01T08:57:10.231Z,5.00
2019-03-01T08:58:10.152Z,5.20
2019-03-01T08:59:10.164Z,5.70
2019-03-01T09:00:10.137Z,5.20
2019-03-01T09:01:10.122Z,5.30
2019-03-01T09:02:11.909Z,5.40
2019-03-01T09:03:10.113Z,5.50
2019-03-01T09:04:13.302Z,5.40
2019-03-01T09:05:11.074Z,5.60
2019-03-01T09:06:10.109Z,5.60
2019-03-01T09:07:10.062Z,5.40
2019-03-01T09:08:10.050Z,5.70
2019-03-01T09:09:10.038Z,6.30
2019-03-01T09:10:10.085Z,5.60
2019-03-01T09:11:10.370Z,5.90
2019-03-01T09:12:10.018Z,6.20
2019-03-01T09:13:09.991Z,6.40
2019-03-01T09:14:09.997Z,5.90
2019-03-01T09:15:10.016Z,6.20
2019-03-01T09:16:09.955Z,6.10
2019-03-01T09:17:09.964Z,6.40
2019-03-01T09:18:11.551Z,6.20
2019-03-01T09:19:09.935Z,7.00
2019-03-01T09:20:09.935Z,6.30
2019-03-01T09:21:12.951Z,5.90
2019-03-01T09:22:09.891Z,6.80
2019-03-01T09:23:21.184Z,6.10
2019-03-01T09:24:10.889Z,5.70
2019-03-01T09:25:09.933Z,6.50
2019-03-01T09:26:09.874Z,5.80
2019-03-01T09:27:09.839Z,6.40
2019-03-01T09:28:09.831Z,6.20
2019-03-01T09:29:13.013Z,6.10
2019-03-01T09:30:10.816Z,6.30
2019-03-01T09:31:09.798Z,6.10
2019-03-01T09:32:09.795Z,5.60
2019-03-01T09:33:09.781Z,6.40
2019-03-01T09:34:09.777Z,6.30
2019-03-01T09:35:09.797Z,6.60
2019-03-01T09:36:09.737Z,6.10
2019-03-01T09:37:09.745Z,6.30
2019-03-01T09:38:11.356Z,6.10
2019-03-01T09:39:09.711Z,6.00
2019-03-01T09:40:09.699Z,5.90
2019-03-01T09:41:09.679Z,6.10
2019-03-01T09:42:12.419Z,6.30
2019-03-01T09:43:10.692Z,6.70
2019-03-01T09:44:09.657Z,6.40
2019-03-01T09:45:10.429Z,6.30
2019-03-01T09:46:09.628Z,6.20
2019-03-01T09:47:09.635Z,6.60
2019-03-01T09:48:12.242Z,5.90
2019-03-01T09:49:09.595Z,6.20
2019-03-01T09:50:09.619Z,6.20
2019-03-01T09:51:10.722Z,5.60
2019-03-01T09:52:09.579Z,5.60
2019-03-01T09:53:09.569Z,6.30
2019-03-01T09:54:10.267Z,6.10
2019-03-01T09:55:09.525Z,6.30
2019-03-01T09:56:12.729Z,6.20
2019-03-01T09:57:12.384Z,6.00
2019-03-01T09:58:10.505Z,6.30
2019-03-01T09:59:09.478Z,6.20
2019-03-01T10:00:09.507Z,6.60
2019-03-01T10:01:09.469Z,6.30
2019-03-01T10:02:09.450Z,6.30
2019-03-01T10:03:09.441Z,6.30
2019-03-01T10:04:09.427Z,6.00
2019-03-01T10:05:09.443Z,6.10
2019-03-01T10:06:09.450Z,6.50
2019-03-01T10:07:09.396Z,6.50
2019-03-01T10:08:09.388Z,6.00
2019-03-01T10:09:09.370Z,6.00
2019-03-01T10:10:09.363Z,6.60
2019-03-01T10:11:09.360Z,6.00
2019-03-01T10:12:09.348Z,6.40
2019-03-01T10:13:09.338Z,5.50
2019-03-01T10:14:09.332Z,6.50
2019-03-01T10:15:09.308Z,5.80
2019-03-01T10:16:09.344Z,6.10
2019-03-01T10:17:09.277Z,5.80
2019-03-01T10:18:09.269Z,5.90
2019-03-01T10:19:09.287Z,6.10
2019-03-01T10:20:09.253Z,5.90
2019-03-01T10:21:09.258Z,6.00
2019-03-01T10:22:09.225Z,6.10
2019-03-01T10:23:09.222Z,5.90
2019-03-01T10:24:09.218Z,5.90
2019-03-01T10:25:09.204Z,6.30
2019-03-01T10:26:13.777Z,5.40
2019-03-01T10:27:09.182Z,5.70
2019-03-01T10:28:09.157Z,6.20
2019-03-01T10:29:09.159Z,5.70
2019-03-01T10:30:09.137Z,5.90
2019-03-01T10:31:09.132Z,5.80
2019-03-01T10:32:09.116Z,6.20
2019-03-01T10:33:09.116Z,6.20
2019-03-01T10:34:09.113Z,6.30
2019-03-01T10:35:09.127Z,6.00
2019-03-01T10:36:09.086Z,6.60
2019-03-01T10:37:09.066Z,6.40
2019-03-01T10:38:09.049Z,6.60
2019-03-01T10:39:09.045Z,6.50
2019-03-01T10:40:09.029Z,6.70
2019-03-01T10:41:09.049Z,6.30
2019-03-01T10:42:09.013Z,6.20
2019-03-01T10:43:08.994Z,6.50
2019-03-01T10:44:08.980Z,6.20
2019-03-01T10:45:08.977Z,6.60
2019-03-01T10:46:08.973Z,6.70
2019-03-01T10:47:08.958Z,6.90
2019-03-01T10:48:08.958Z,7.00
2019-03-01T10:49:08.954Z,7.00
2019-03-01T10:50:08.921Z,7.00
2019-03-01T10:51:08.915Z,7.20
2019-03-01T10:52:08.902Z,7.00
2019-03-01T10:53:08.925Z,6.70
2019-03-01T10:54:08.871Z,7.10
2019-03-01T10:55:08.878Z,7.40
2019-03-01T10:56:08.908Z,6.60
2019-03-01T10:57:08.848Z,6.80
2019-03-01T10:58:08.837Z,7.40
2019-03-01T10:59:08.832Z,7.60
2019-03-01T11:00:08.847Z,6.70
2019-03-01T11:01:08.862Z,7.30
2019-03-01T11:02:08.805Z,6.80
2019-03-01T11:03:08.775Z,6.70
2019-03-01T11:04:08.808Z,6.90
2019-03-01T11:05:08.777Z,7.90
2019-03-01T11:06:08.786Z,6.80
2019-03-01T11:07:08.754Z,7.70
2019-03-01T11:08:08.737Z,6.60
2019-03-01T11:09:08.734Z,7.30
2019-03-01T11:10:08.699Z,7.30
2019-03-01T11:11:08.697Z,7.40
2019-03-01T11:12:08.699Z,7.10
2019-03-01T11:13:08.692Z,7.20
2019-03-01T11:14:08.651Z,7.10
2019-03-01T11:15:08.643Z,6.90
2019-03-01T11:16:08.707Z,7.40
2019-03-01T11:17:08.657Z,7.10
2019-03-01T11:18:08.640Z,7.00
2019-03-01T11:19:08.685Z,6.90
2019-03-01T11:20:08.586Z,7.00
2019-03-01T11:21:08.573Z,7.00
2019-03-01T11:22:08.569Z,7.60
2019-03-01T11:23:08.553Z,7.30
2019-03-01T11:24:08.549Z,7.50
2019-03-01T11:25:08.533Z,7.30
2019-03-01T11:26:08.588Z,7.00
2019-03-01T11:27:12.884Z,7.20
2019-03-01T11:28:10.439Z,7.50
2019-03-01T11:29:08.589Z,7.10
2019-03-01T11:30:08.474Z,7.40
2019-03-01T11:31:08.461Z,6.90
2019-03-01T11:32:08.474Z,7.60
2019-03-01T11:33:08.452Z,7.00
2019-03-01T11:34:08.433Z,7.10
2019-03-01T11:35:08.441Z,6.70
2019-03-01T11:36:08.403Z,7.10
2019-03-01T11:37:08.402Z,7.00
2019-03-01T11:38:08.404Z,7.20
2019-03-01T11:39:08.435Z,7.40
2019-03-01T11:40:08.366Z,6.50
2019-03-01T11:41:08.373Z,7.10
2019-03-01T11:42:08.378Z,6.40
2019-03-01T11:43:08.419Z,7.10
2019-03-01T11:44:08.351Z,6.40
2019-03-01T11:45:08.303Z,7.40
2019-03-01T11:46:08.297Z,7.00
2019-03-01T11:47:08.292Z,6.80
2019-03-01T11:48:08.272Z,6.70
2019-03-01T11:49:08.263Z,6.40
2019-03-01T11:50:08.318Z,6.50
2019-03-01T11:51:08.286Z,6.50
2019-03-01T11:52:08.319Z,7.30
2019-03-01T11:53:08.219Z,7.30
2019-03-01T11:54:08.231Z,6.50
2019-03-01T11:55:08.196Z,6.50
2019-03-01T11:56:08.421Z,7.00
2019-03-01T11:57:08.186Z,7.20
2019-03-01T11:58:08.191Z,6.70
2019-03-01T11:59:08.148Z,6.80
2019-03-01T12:00:08.138Z,6.80
2019-03-01T12:01:16.854Z,6.60
2019-03-01T12:02:09.268Z,6.60
2019-03-01T12:03:08.134Z,6.70
2019-03-01T12:04:08.098Z,6.70
2019-03-01T12:05:08.124Z,6.50
2019-03-01T12:06:08.120Z,6.40
2019-03-01T12:07:08.088Z,6.30
2019-03-01T12:08:08.060Z,6.30
2019-03-01T12:09:08.043Z,6.40
2019-03-01T12:10:08.056Z,6.30
2019-03-01T12:11:08.083Z,6.60
2019-03-01T12:12:08.033Z,6.60
2019-03-01T12:13:08.014Z,6.20
2019-03-01T12:14:07.984Z,6.10
2019-03-01T12:15:07.971Z,5.60
2019-03-01T12:16:07.966Z,5.70
2019-03-01T12:17:07.966Z,5.20
2019-03-01T12:18:07.955Z,5.20
2019-03-01T12:19:07.932Z,5.10
2019-03-01T12:20:07.919Z,5.20
2019-03-01T12:21:07.933Z,5.20
2019-03-01T12:22:16.757Z,5.40
2019-03-01T12:23:08.894Z,4.80
2019-03-01T12:24:07.883Z,5.10
2019-03-01T12:25:07.890Z,5.30
2019-03-01T12:26:07.948Z,5.00
2019-03-01T12:27:07.838Z,4.60
2019-03-01T12:28:07.847Z,4.80
2019-03-01T12:29:07.887Z,4.60
2019-03-01T12:30:07.859Z,4.60
2019-03-01T12:31:07.795Z,4.30
2019-03-01T12:32:07.796Z,4.60
2019-03-01T12:33:07.783Z,4.40
2019-03-01T12:34:07.781Z,4.30
2019-03-01T12:35:07.770Z,4.70
2019-03-01T12:36:07.755Z,4.10
2019-03-01T12:37:07.731Z,4.40
2019-03-01T12:38:07.725Z,4.50
2019-03-01T12:39:09.776Z,4.40
2019-03-01T12:40:07.708Z,4.50
2019-03-01T12:41:07.684Z,4.30
2019-03-01T12:42:07.671Z,4.60
2019-03-01T12:43:07.704Z,4.40
2019-03-01T12:44:07.647Z,5.30
2019-03-01T12:45:07.637Z,4.40
2019-03-01T12:46:07.627Z,4.70
2019-03-01T12:47:07.617Z,3.80
2019-03-01T12:48:07.678Z,4.50
2019-03-01T12:49:07.721Z,4.50
2019-03-01T12:50:07.581Z,4.40
2019-03-01T12:51:07.582Z,4.40
2019-03-01T12:52:07.565Z,4.60
2019-03-01T12:53:07.566Z,4.10
2019-03-01T12:54:07.538Z,4.50
2019-03-01T12:55:07.536Z,4.70
2019-03-01T12:56:07.583Z,4.40
2019-03-01T12:57:07.512Z,4.30
2019-03-01T12:58:07.529Z,4.20
2019-03-01T12:59:07.609Z,4.40
2019-03-01T13:00:07.472Z,4.00
2019-03-01T13:01:07.478Z,4.40
2019-03-01T13:02:08.008Z,4.20
2019-03-01T13:03:09.064Z,4.70
2019-03-01T13:04:07.454Z,4.80
2019-03-01T13:05:07.444Z,3.90
2019-03-01T13:06:07.510Z,4.80
2019-03-01T13:07:10.480Z,4.70
2019-03-01T13:08:08.403Z,4.50
2019-03-01T13:09:07.387Z,4.40
2019-03-01T13:10:07.415Z,4.50
2019-03-01T13:11:07.412Z,4.50
2019-03-01T13:12:07.431Z,4.80
2019-03-01T13:13:08.549Z,4.70
2019-03-01T13:14:07.385Z,4.80
2019-03-01T13:15:07.303Z,4.70
2019-03-01T13:16:07.347Z,5.20
2019-03-01T13:17:07.295Z,4.70
2019-03-01T13:18:10.315Z,5.10